TAF and METAR

Decoding for American and Canadian METARs and TAFs is not fully implemented.

Could not understand the following METAR

PAMR 311253Z 18003KT 10SM BKN080 07/03 A2973 RMK AO2 SLP067 T00720028
No TAF available for Merrill Field